Time;durP1;ratioP1;P1;durP2;ratioP2;P2;SDS_P1;SDS_P2;PMS_P1;PMS_P2;Temp;Humidity;BMP_temperature;BMP_pressure;BME280_temperature;BME280_humidity;BME280_pressure;Samples;Min_cycle;Max_cycle;Signal;HPM_P1;HPM_P2
2021/06/14 00:02:18;;;;;;;;;6.00;6.00;;;;;27.49;34.51;101649.34;5062860;28;46054;-58
2021/06/14 00:04:43;;;;;;;;;8.00;7.33;;;;;27.48;35.01;101645.81;5062589;28;45316;-58
2021/06/14 00:07:09;;;;;;;;;7.00;7.00;;;;;27.48;34.74;101644.94;5046443;28;50450;-57
2021/06/14 00:09:34;;;;;;;;;6.00;6.00;;;;;27.48;35.17;101655.63;5041397;28;45566;-57
2021/06/14 00:12:00;;;;;;;;;7.00;7.00;;;;;27.48;34.75;101660.94;5052759;28;61496;-57
2021/06/14 00:14:26;;;;;;;;;8.67;8.67;;;;;27.47;34.73;101652.09;5062351;28;45413;-56
2021/06/14 00:16:51;;;;;;;;;8.00;8.00;;;;;27.47;35.13;101651.22;5062083;28;51331;-57
2021/06/14 00:19:17;;;;;;;;;7.00;7.00;;;;;27.47;35.39;101644.09;5062761;28;45231;-57
2021/06/14 00:21:42;;;;;;;;;6.33;6.33;;;;;27.46;34.86;101642.38;5040944;28;46766;-58
2021/06/14 00:24:08;;;;;;;;;7.00;6.33;;;;;27.47;35.21;101649.44;5041992;28;51148;-58
2021/06/14 00:26:34;;;;;;;;;6.33;6.33;;;;;27.46;35.38;101644.19;5041343;28;45485;-58
2021/06/14 00:28:59;;;;;;;;;8.33;6.33;;;;;27.46;35.02;101647.72;5042208;28;45274;-58
2021/06/14 00:31:25;;;;;;;;;7.00;7.00;;;;;27.47;35.26;101651.22;5041931;28;46237;-56
2021/06/14 00:33:51;;;;;;;;;6.00;6.00;;;;;27.46;34.91;101660.19;5040676;28;45386;-57
2021/06/14 00:36:16;;;;;;;;;8.00;7.00;;;;;27.47;34.79;101651.22;5047897;28;45314;-58
2021/06/14 00:38:41;;;;;;;;;6.00;6.00;;;;;27.45;34.91;101647.78;5047004;28;45335;-58
2021/06/14 00:41:08;;;;;;;;;6.00;6.00;;;;;27.45;35.51;101647.78;5041435;28;63625;-57
2021/06/14 00:43:34;;;;;;;;;6.67;6.67;;;;;27.45;35.29;101647.78;5041649;28;45333;-58
2021/06/14 00:46:00;;;;;;;;;7.00;7.00;;;;;27.46;35.50;101652.19;5042228;28;45248;-57
2021/06/14 00:48:25;;;;;;;;;6.67;6.67;;;;;27.46;35.10;101644.19;5041908;28;45347;-57
2021/06/14 00:50:56;;;;;;;;;6.67;6.67;;;;;27.45;35.49;101654.00;5040781;28;47884;-58
2021/06/14 00:53:27;;;;;;;;;9.00;6.00;;;;;27.45;35.45;101645.13;5053171;28;45321;-58
2021/06/14 00:55:53;;;;;;;;;5.33;5.33;;;;;27.45;34.73;101650.47;5049171;28;45259;-57
2021/06/14 00:58:19;;;;;;;;;7.33;5.33;;;;;27.44;35.58;101652.25;5046617;28;45165;-58
2021/06/14 01:00:45;;;;;;;;;4.00;4.00;;;;;27.44;35.07;101646.91;5041852;28;45332;-58
2021/06/14 01:03:11;;;;;;;;;7.67;6.67;;;;;27.44;35.27;101648.75;5053860;28;45696;-58
2021/06/14 01:05:43;;;;;;;;;6.33;6.00;;;;;27.44;34.90;101648.75;5041944;28;45362;-57
2021/06/14 01:08:09;;;;;;;;;4.33;4.33;;;;;27.44;35.56;101646.06;5054035;28;45495;-58
2021/06/14 01:10:39;;;;;;;;;9.33;7.00;;;;;27.42;35.09;101651.47;5040526;28;46210;-57
2021/06/14 01:13:20;;;;;;;;;9.00;7.33;;;;;27.43;35.21;101647.88;5041358;28;45240;-56
2021/06/14 01:15:59;;;;;;;;;6.67;6.67;;;;;27.43;35.56;101642.53;5041630;28;45350;-58
2021/06/14 01:18:58;;;;;;;;;5.33;5.33;;;;;27.42;35.06;101638.16;5044846;28;45514;-58
2021/06/14 01:21:26;;;;;;;;;8.67;8.67;;;;;27.41;35.55;101643.59;5059793;28;45427;-58
2021/06/14 01:24:21;;;;;;;;;6.00;6.00;;;;;27.42;35.33;101648.81;5061613;28;45316;-58
2021/06/14 01:26:59;;;;;;;;;8.00;8.00;;;;;27.42;35.76;101642.63;5060459;28;45417;-58
2021/06/14 01:29:25;;;;;;;;;7.00;7.00;;;;;27.41;35.56;101639.09;5060335;28;45422;-58
2021/06/14 01:31:52;;;;;;;;;7.00;5.00;;;;;27.41;35.68;101641.75;5059777;28;57685;-58
2021/06/14 01:34:17;;;;;;;;;6.00;6.00;;;;;27.42;35.20;101631.97;5060009;28;45383;-58
2021/06/14 01:36:43;;;;;;;;;5.00;5.00;;;;;27.41;35.28;101632.91;5053733;28;45411;-57
2021/06/14 01:39:09;;;;;;;;;8.00;8.00;;;;;27.41;35.40;101630.25;5042813;28;50509;-57
2021/06/14 01:41:35;;;;;;;;;7.00;7.00;;;;;27.40;35.88;101624.06;5039968;28;46287;-58
2021/06/14 01:44:03;;;;;;;;;6.33;6.00;;;;;27.40;35.76;101626.72;5039857;28;45370;-57
2021/06/14 01:46:32;;;;;;;;;8.33;7.67;;;;;27.41;35.61;101628.44;5051394;28;45341;-58
2021/06/14 01:48:58;;;;;;;;;4.67;4.67;;;;;27.40;35.76;101626.72;5042945;28;45375;-57
2021/06/14 01:51:27;;;;;;;;;6.33;6.00;;;;;27.39;35.81;101612.53;5039038;28;66694;-57
2021/06/14 01:54:03;;;;;;;;;5.00;5.00;;;;;27.40;35.65;101616.06;5023290;28;45376;-58
2021/06/14 01:56:43;;;;;;;;;6.00;6.00;;;;;27.39;35.58;101607.22;5039892;28;45315;-58
2021/06/14 01:59:14;;;;;;;;;6.33;6.33;;;;;27.38;35.26;101593.97;5023205;28;45545;-58
2021/06/14 02:01:41;;;;;;;;;7.00;6.00;;;;;27.39;35.51;101598.34;5040950;28;45298;-57
2021/06/14 02:04:06;;;;;;;;;8.00;6.33;;;;;27.38;35.93;101594.84;5025027;28;46002;-57
2021/06/14 02:06:36;;;;;;;;;8.00;8.00;;;;;27.38;36.07;101588.63;5051588;28;45378;-57
2021/06/14 02:09:07;;;;;;;;;9.00;7.00;;;;;27.39;35.53;101579.69;5056423;28;45430;-58
2021/06/14 02:11:32;;;;;;;;;8.00;8.00;;;;;27.38;36.01;101580.63;5060589;28;48200;-58
2021/06/14 02:13:58;;;;;;;;;7.00;7.00;;;;;27.38;35.35;101577.97;5063595;28;62308;-58
2021/06/14 02:16:24;;;;;;;;;8.00;8.00;;;;;27.38;35.46;101575.31;5063222;28;45337;-57
2021/06/14 02:18:49;;;;;;;;;4.33;4.33;;;;;27.37;36.15;101574.47;5064642;28;45331;-58
2021/06/14 02:21:15;;;;;;;;;7.67;7.00;;;;;27.37;35.40;101576.28;5054807;28;47468;-57
2021/06/14 02:23:40;;;;;;;;;4.33;4.33;;;;;27.36;35.79;101580.75;5064417;28;45420;-57
2021/06/14 02:26:06;;;;;;;;;6.00;6.00;;;;;27.37;35.58;101571.81;5046205;28;45185;-57
2021/06/14 02:28:31;;;;;;;;;6.00;6.00;;;;;27.37;35.42;101573.63;5064137;28;45606;-57
2021/06/14 02:30:57;;;;;;;;;6.00;6.00;;;;;27.36;36.04;101569.25;5062507;28;50751;-57
2021/06/14 02:33:22;;;;;;;;;6.00;6.00;;;;;27.35;36.05;101565.69;5064152;28;45378;-58
2021/06/14 02:35:48;;;;;;;;;8.67;7.00;;;;;27.36;36.28;101564.75;5063567;28;55203;-58
2021/06/14 02:38:13;;;;;;;;;7.00;6.00;;;;;27.36;35.52;101561.25;5045058;28;45310;-58
2021/06/14 02:40:40;;;;;;;;;7.33;5.33;;;;;27.35;36.44;101555.03;5043673;28;46252;-58
2021/06/14 02:43:08;;;;;;;;;7.00;7.00;;;;;27.35;35.52;101546.19;5052438;28;46105;-58
2021/06/14 02:45:36;;;;;;;;;5.33;3.67;;;;;27.34;35.60;101548.00;5046979;28;45371;-58
2021/06/14 02:48:03;;;;;;;;;5.00;5.00;;;;;27.35;36.28;101544.38;5044009;28;45323;-57
2021/06/14 02:50:30;;;;;;;;;7.00;7.00;;;;;27.35;36.12;101546.19;5042241;28;48287;-59
2021/06/14 02:52:55;;;;;;;;;6.33;6.33;;;;;27.35;35.75;101543.53;5025826;28;45888;-57
2021/06/14 02:55:27;;;;;;;;;9.00;6.00;;;;;27.34;36.35;101547.16;5025621;28;45344;-58
2021/06/14 02:57:55;;;;;;;;;7.00;7.00;;;;;27.33;35.97;101554.28;5042573;28;45584;-57
2021/06/14 03:00:24;;;;;;;;;8.33;8.33;;;;;27.33;35.70;101551.59;5043070;28;45374;-57
2021/06/14 03:02:50;;;;;;;;;7.00;6.00;;;;;27.33;36.34;101548.09;5043338;28;45243;-57
2021/06/14 03:05:16;;;;;;;;;8.00;8.00;;;;;27.33;35.75;101540.09;5060177;28;45297;-57
2021/06/14 03:07:44;;;;;;;;;7.00;7.00;;;;;27.33;35.81;101548.09;5042328;28;45235;-57
2021/06/14 03:10:10;;;;;;;;;7.00;7.00;;;;;27.32;35.58;101549.88;5043159;28;46303;-57
2021/06/14 03:12:35;;;;;;;;;5.33;5.33;;;;;27.32;36.40;101549.03;5042002;28;45338;-58
2021/06/14 03:15:05;;;;;;;;;6.00;6.00;;;;;27.32;35.92;101546.38;5041492;28;64915;-57
2021/06/14 03:17:32;;;;;;;;;6.00;6.00;;;;;27.31;35.82;101548.16;5042258;28;45369;-58
2021/06/14 03:19:58;;;;;;;;;7.33;7.33;;;;;27.31;36.46;101547.31;5041922;28;46419;-57
2021/06/14 03:22:23;;;;;;;;;5.00;5.00;;;;;27.30;35.95;101549.13;5054748;28;45542;-58
2021/06/14 03:24:48;;;;;;;;;5.33;5.33;;;;;27.31;36.27;101547.31;5063159;28;46791;-57
2021/06/14 03:27:15;;;;;;;;;6.33;6.33;;;;;27.30;36.34;101546.44;5063376;28;45454;-57
2021/06/14 03:29:42;;;;;;;;;5.33;5.33;;;;;27.30;35.71;101549.13;5061938;28;45451;-58
2021/06/14 03:32:08;;;;;;;;;6.00;5.33;;;;;27.29;36.00;101552.75;5063021;28;45418;-57
2021/06/14 03:34:36;;;;;;;;;5.33;5.33;;;;;27.30;36.49;101557.13;5061780;28;45474;-56
2021/06/14 03:37:01;;;;;;;;;8.00;8.00;;;;;27.30;36.12;101556.28;5053232;28;45338;-56
2021/06/14 03:39:27;;;;;;;;;6.67;6.67;;;;;27.28;36.72;101548.38;5041567;28;45337;-57
2021/06/14 03:41:53;;;;;;;;;6.33;6.33;;;;;27.28;36.51;101553.72;5042847;28;45651;-57
2021/06/14 03:44:20;;;;;;;;;6.33;6.33;;;;;27.29;35.91;101552.75;5042819;28;45426;-57
2021/06/14 03:46:45;;;;;;;;;6.67;6.00;;;;;27.28;36.61;101556.38;5043212;28;45354;-56
2021/06/14 03:49:11;;;;;;;;;5.67;5.67;;;;;27.28;35.97;101550.16;5060837;28;46570;-56
2021/06/14 03:51:37;;;;;;;;;6.33;6.33;;;;;27.27;35.89;101552.00;5063069;28;45554;-57
2021/06/14 03:54:03;;;;;;;;;9.00;7.33;;;;;27.28;36.48;101560.81;5045041;28;45297;-56
2021/06/14 03:56:31;;;;;;;;;6.00;6.00;;;;;27.27;36.61;101557.31;5061718;28;45571;-57
2021/06/14 03:58:58;;;;;;;;;6.67;6.67;;;;;27.27;36.08;101567.97;5061033;28;46149;-56
2021/06/14 04:01:23;;;;;;;;;6.67;6.67;;;;;27.27;36.46;101567.97;5062813;28;45481;-57
2021/06/14 04:06:36;;;;;;;;;6.67;6.67;;;;;27.26;36.15;101563.59;5021054;28;45449;-57
2021/06/14 04:09:01;;;;;;;;;7.00;7.00;;;;;27.27;36.16;101567.97;5050076;28;47331;-57
2021/06/14 04:11:26;;;;;;;;;6.00;6.00;;;;;27.26;36.18;101563.59;5058869;28;45442;-57
2021/06/14 04:13:52;;;;;;;;;5.67;5.67;;;;;27.26;36.58;101566.25;5041908;28;54726;-56
2021/06/14 04:16:20;;;;;;;;;6.00;6.00;;;;;27.26;36.53;101560.94;5042670;28;45228;-57
2021/06/14 04:18:46;;;;;;;;;6.00;6.00;;;;;27.25;36.36;101567.22;5041026;28;46229;-57
2021/06/14 04:21:11;;;;;;;;;5.67;5.33;;;;;27.26;36.74;101565.38;5045053;28;45238;-57
2021/06/14 04:23:38;;;;;;;;;6.00;6.00;;;;;27.26;36.02;101568.94;5061265;28;45317;-56
2021/06/14 04:26:04;;;;;;;;;7.00;6.00;;;;;27.26;36.20;101576.91;5060866;28;45516;-56
2021/06/14 04:28:29;;;;;;;;;7.00;7.00;;;;;27.26;36.16;101573.38;5060778;28;61503;-57
2021/06/14 04:30:54;;;;;;;;;8.00;8.00;;;;;27.26;36.24;101574.25;5062162;28;47118;-56
2021/06/14 04:33:20;;;;;;;;;7.33;6.00;;;;;27.24;36.11;101574.34;5061099;28;45333;-57
2021/06/14 04:35:45;;;;;;;;;7.67;6.00;;;;;27.27;36.26;101583.09;5062406;28;45272;-57
2021/06/14 04:38:11;;;;;;;;;7.00;7.00;;;;;27.26;36.26;101582.25;5042838;28;56497;-58
2021/06/14 04:40:36;;;;;;;;;6.67;6.67;;;;;27.26;36.83;101574.25;5041927;28;45398;-57
2021/06/14 04:43:02;;;;;;;;;6.00;6.00;;;;;27.24;36.73;101587.66;5045225;28;60088;-57
2021/06/14 04:45:27;;;;;;;;;6.00;6.00;;;;;27.25;36.94;101588.53;5040647;28;45347;-57
2021/06/14 04:47:53;;;;;;;;;7.00;6.33;;;;;27.26;36.56;101594.69;5042046;28;46295;-58
2021/06/14 04:50:18;;;;;;;;;7.00;5.00;;;;;27.26;36.84;101592.91;5041730;28;45149;-57
2021/06/14 04:52:43;;;;;;;;;5.33;5.33;;;;;27.26;36.47;101592.03;5041838;28;47626;-57
2021/06/14 04:55:09;;;;;;;;;4.33;4.33;;;;;27.26;36.27;101594.69;5053429;28;59049;-57
2021/06/14 04:57:35;;;;;;;;;10.00;7.00;;;;;27.25;37.07;101596.53;5041687;28;46297;-57
2021/06/14 05:00:00;;;;;;;;;6.33;6.33;;;;;27.26;36.69;101597.38;5040303;28;45320;-57
2021/06/14 05:02:26;;;;;;;;;7.00;5.00;;;;;27.26;36.48;101597.38;5049349;28;45327;-57
2021/06/14 05:04:51;;;;;;;;;6.00;6.00;;;;;27.26;36.63;101595.56;5059274;28;45543;-57
2021/06/14 05:07:16;;;;;;;;;7.33;7.00;;;;;27.26;37.11;101600.91;5023785;28;46825;-59
2021/06/14 05:09:42;;;;;;;;;7.00;7.00;;;;;27.26;36.42;101611.56;5044618;28;45386;-56
2021/06/14 05:12:08;;;;;;;;;5.00;5.00;;;;;27.26;37.04;101608.91;5041623;28;45516;-58
2021/06/14 05:14:34;;;;;;;;;6.00;6.00;;;;;27.26;37.12;101614.22;5053902;28;45550;-57
2021/06/14 05:16:59;;;;;;;;;6.00;6.00;;;;;27.27;37.21;101612.41;5041490;28;46024;-58
2021/06/14 05:19:24;;;;;;;;;7.67;7.00;;;;;27.27;36.32;101615.06;5041354;28;45339;-58
2021/06/14 05:21:50;;;;;;;;;6.00;6.00;;;;;27.27;37.00;101621.28;5050072;28;45436;-58
2021/06/14 05:24:15;;;;;;;;;8.00;6.33;;;;;27.27;36.29;101623.06;5061950;28;45561;-58
2021/06/14 05:26:41;;;;;;;;;6.67;6.67;;;;;27.26;36.72;101627.56;5059938;28;55908;-58
2021/06/14 05:29:06;;;;;;;;;6.33;5.00;;;;;27.26;37.07;101630.22;5061391;28;45284;-57
2021/06/14 05:31:31;;;;;;;;;4.67;4.33;;;;;27.27;36.43;101628.41;5061605;28;45435;-58
2021/06/14 05:33:57;;;;;;;;;7.00;5.00;;;;;27.26;37.13;101632.00;5061803;28;45319;-58
2021/06/14 05:36:22;;;;;;;;;5.00;5.00;;;;;27.26;36.91;101630.22;5055977;28;54648;-58
2021/06/14 05:38:48;;;;;;;;;7.33;6.67;;;;;27.26;36.51;101630.22;5046612;28;59522;-60
2021/06/14 05:41:13;;;;;;;;;7.67;5.67;;;;;27.27;36.78;101626.59;5064632;28;45506;-58
2021/06/14 05:43:38;;;;;;;;;8.33;6.00;;;;;27.27;36.96;101625.72;5050350;28;45501;-59
